createdAt,value
2023-03-11T00:00:13.580Z,97709.28
2023-03-11T00:01:45.411Z,97703.97
2023-03-11T00:03:20.211Z,97708.47
2023-03-11T00:04:51.981Z,97720.66
2023-03-11T00:06:23.781Z,97706.50
2023-03-11T00:07:56.041Z,97722.31
2023-03-11T00:09:27.827Z,97714.88
2023-03-11T00:11:00.769Z,97721.91
2023-03-11T00:12:32.498Z,97727.88
2023-03-11T00:14:04.328Z,97723.00
2023-03-11T00:15:37.260Z,97724.38
2023-03-11T00:17:08.989Z,97727.00
2023-03-11T00:18:40.712Z,97728.25
2023-03-11T00:20:33.238Z,97736.22
2023-03-11T00:22:04.964Z,97742.63
2023-03-11T00:23:36.731Z,97743.31
2023-03-11T00:25:11.535Z,97734.78
2023-03-11T00:26:43.264Z,97737.13
2023-03-11T00:28:15.354Z,97738.34
2023-03-11T00:29:47.096Z,97752.03
2023-03-11T00:31:19.126Z,97761.94
2023-03-11T00:32:53.146Z,97758.88
2023-03-11T00:34:25.863Z,97778.56
2023-03-11T00:35:58.947Z,97775.34
2023-03-11T00:37:30.832Z,97782.00
2023-03-11T00:39:06.752Z,97773.59
2023-03-11T00:40:39.281Z,97779.44
2023-03-11T00:42:10.987Z,97781.50
2023-03-11T00:43:44.232Z,97783.59
2023-03-11T00:45:16.567Z,97800.72
2023-03-11T00:46:50.054Z,97796.66
2023-03-11T00:48:21.823Z,97797.75
2023-03-11T00:49:53.571Z,97801.63
2023-03-11T00:51:25.368Z,97808.19
2023-03-11T00:52:58.479Z,97817.22
2023-03-11T00:54:30.328Z,97830.03
2023-03-11T00:56:08.014Z,97820.38
2023-03-11T00:57:40.686Z,97826.69
2023-03-11T00:59:13.189Z,97818.13
2023-03-11T01:00:45.108Z,97840.44
2023-03-11T01:02:16.886Z,97843.34
2023-03-11T01:03:48.867Z,97831.16
2023-03-11T01:05:25.476Z,97830.47
2023-03-11T01:06:57.327Z,97842.75
2023-03-11T01:08:29.702Z,97850.13
2023-03-11T01:10:01.949Z,97853.03
2023-03-11T01:11:34.076Z,97853.03
2023-03-11T01:13:06.284Z,97852.31
2023-03-11T01:14:38.171Z,97861.34
2023-03-11T01:16:09.937Z,97871.13
2023-03-11T01:17:42.146Z,97874.75
2023-03-11T01:19:15.473Z,97858.84
2023-03-11T01:20:47.887Z,97877.41
2023-03-11T01:22:19.626Z,97873.31
2023-03-11T01:23:51.335Z,97883.09
2023-03-11T01:25:24.817Z,97892.84
2023-03-11T01:26:56.569Z,97879.78
2023-03-11T01:28:29.776Z,97903.78
2023-03-11T01:30:04.547Z,97889.44
2023-03-11T01:31:36.385Z,97902.81
2023-03-11T01:33:12.712Z,97902.22
2023-03-11T01:34:44.632Z,97906.81
2023-03-11T01:36:16.699Z,97916.47
2023-03-11T01:37:48.472Z,97913.91
2023-03-11T01:39:20.329Z,97923.44
2023-03-11T01:40:53.339Z,97936.00
2023-03-11T01:42:25.947Z,97930.94
2023-03-11T01:43:57.882Z,97935.38
2023-03-11T01:45:36.571Z,97941.53
2023-03-11T01:47:11.483Z,97955.75
2023-03-11T01:48:50.025Z,97937.19
2023-03-11T01:50:22.648Z,97943.47
2023-03-11T01:52:00.471Z,97945.38
2023-03-11T01:53:33.784Z,97952.41
2023-03-11T01:55:06.872Z,97967.44
2023-03-11T01:56:39.958Z,97956.00
2023-03-11T01:58:16.526Z,97963.00
2023-03-11T01:59:51.644Z,97960.44
2023-03-11T02:01:24.158Z,97977.34
2023-03-11T02:02:58.942Z,97968.53
2023-03-11T02:04:34.521Z,97983.63
2023-03-11T02:06:11.268Z,97981.06
2023-03-11T02:07:43.293Z,97997.72
2023-03-11T02:09:18.316Z,97979.25
2023-03-11T02:10:53.092Z,97992.03
2023-03-11T02:12:25.531Z,97998.19
2023-03-11T02:14:02.231Z,97998.41
2023-03-11T02:15:34.304Z,98004.44
2023-03-11T02:17:08.849Z,98005.41
2023-03-11T02:18:42.735Z,98012.38
2023-03-11T02:20:27.571Z,98009.03
2023-03-11T02:21:59.538Z,98023.25
2023-03-11T02:23:49.677Z,98017.81
2023-03-11T02:25:34.458Z,98037.34
2023-03-11T02:27:10.587Z,98026.75
2023-03-11T02:28:43.802Z,98043.59
2023-03-11T02:30:17.479Z,98051.44
2023-03-11T02:31:50.193Z,98030.25
2023-03-11T02:33:26.990Z,98038.28
2023-03-11T02:34:58.752Z,98050.84
2023-03-11T02:36:41.633Z,98051.69
2023-03-11T02:38:16.376Z,98056.25
2023-03-11T02:39:54.641Z,98057.72
2023-03-11T02:41:27.704Z,98070.25
2023-03-11T02:43:07.307Z,98061.44
2023-03-11T02:44:42.366Z,98068.56
2023-03-11T02:46:15.166Z,98073.88
2023-03-11T02:47:47.028Z,98080.84
2023-03-11T02:49:20.578Z,98083.59
2023-03-11T02:50:52.852Z,98081.81
2023-03-11T02:52:28.059Z,98094.34
2023-03-11T02:54:04.370Z,98095.41
2023-03-11T02:55:36.948Z,98084.19
2023-03-11T02:57:08.797Z,98127.44
2023-03-11T02:58:40.618Z,98107.22
2023-03-11T03:00:16.826Z,98114.41
2023-03-11T03:01:56.279Z,98126.13
2023-03-11T03:03:28.283Z,98122.50
2023-03-11T03:05:00.081Z,98120.81
2023-03-11T03:06:31.837Z,98128.88
2023-03-11T03:08:03.629Z,98144.16
2023-03-11T03:09:36.710Z,98164.53
2023-03-11T03:11:09.156Z,98155.84
2023-03-11T03:12:40.969Z,98161.34
2023-03-11T03:14:14.253Z,98166.66
2023-03-11T03:15:46.012Z,98180.03
2023-03-11T03:17:17.830Z,98174.84
2023-03-11T03:18:52.763Z,98170.50
2023-03-11T03:20:26.626Z,98175.91
2023-03-11T03:22:01.532Z,98205.31
2023-03-11T03:23:35.390Z,98208.78
2023-03-11T03:25:08.262Z,98203.59
2023-03-11T03:26:40.693Z,98198.63
2023-03-11T03:28:13.831Z,98208.72
2023-03-11T03:29:49.601Z,98222.78
2023-03-11T03:31:21.479Z,98228.09
2023-03-11T03:32:53.237Z,98230.97
2023-03-11T03:34:25.622Z,98238.19
2023-03-11T03:35:57.403Z,98243.59
2023-03-11T03:37:35.765Z,98253.47
2023-03-11T03:39:07.643Z,98256.22
2023-03-11T03:40:46.743Z,98253.78
2023-03-11T03:42:21.970Z,98246.91
2023-03-11T03:43:54.882Z,98263.66
2023-03-11T03:45:27.126Z,98280.59
2023-03-11T03:46:59.392Z,98288.63
2023-03-11T03:48:31.829Z,98282.63
2023-03-11T03:50:08.570Z,98296.06
2023-03-11T03:51:40.448Z,98295.44
2023-03-11T03:53:17.429Z,98308.69
2023-03-11T03:54:49.179Z,98314.00
2023-03-11T03:56:21.002Z,98316.63
2023-03-11T03:57:53.074Z,98321.72
2023-03-11T03:59:28.764Z,98331.69
2023-03-11T04:01:04.589Z,98326.47
2023-03-11T04:02:37.131Z,98336.22
2023-03-11T04:04:09.043Z,98332.75
2023-03-11T04:05:40.858Z,98344.25
2023-03-11T04:07:12.766Z,98352.22
2023-03-11T04:08:44.675Z,98367.16
2023-03-11T04:10:17.263Z,98349.47
2023-03-11T04:11:49.333Z,98358.38
2023-03-11T04:13:22.281Z,98373.19
2023-03-11T04:14:54.777Z,98370.66
2023-03-11T04:16:26.646Z,98375.09
2023-03-11T04:18:04.204Z,98381.25
2023-03-11T04:19:35.960Z,98377.75
2023-03-11T04:21:07.921Z,98386.53
2023-03-11T04:22:39.695Z,98397.22
2023-03-11T04:24:11.507Z,98391.94
2023-03-11T04:25:44.239Z,98391.94
2023-03-11T04:27:15.989Z,98394.56
2023-03-11T04:28:48.610Z,98406.03
2023-03-11T04:30:21.144Z,98419.28
2023-03-11T04:31:55.514Z,98420.22
2023-03-11T04:33:27.412Z,98415.13
2023-03-11T04:34:59.283Z,98422.88
2023-03-11T04:36:31.053Z,98431.88
2023-03-11T04:38:02.884Z,98445.00
2023-03-11T04:39:35.381Z,98448.50
2023-03-11T04:41:07.685Z,98429.88
2023-03-11T04:42:41.995Z,98462.59
2023-03-11T04:44:13.885Z,98463.66
2023-03-11T04:45:45.673Z,98466.19
2023-03-11T04:47:18.039Z,98457.41
2023-03-11T04:48:49.881Z,98462.59
2023-03-11T04:50:21.799Z,98466.19
2023-03-11T04:51:53.732Z,98465.25
2023-03-11T04:53:27.725Z,98475.94
2023-03-11T04:55:00.135Z,98470.66
2023-03-11T04:56:31.926Z,98475.94
2023-03-11T04:58:04.196Z,98496.09
2023-03-11T04:59:36.387Z,98491.72
2023-03-11T05:01:08.575Z,98485.38
2023-03-11T05:02:41.225Z,98489.91
2023-03-11T05:04:13.144Z,98497.84
2023-03-11T05:05:45.878Z,98499.47
2023-03-11T05:07:18.234Z,98491.44
2023-03-11T05:08:50.564Z,98510.91
2023-03-11T05:10:22.741Z,98525.94
2023-03-11T05:11:58.393Z,98511.00
2023-03-11T05:13:31.754Z,98526.91
2023-03-11T05:15:04.154Z,98528.50
2023-03-11T05:16:36.012Z,98533.88
2023-03-11T05:18:09.315Z,98536.53
2023-03-11T05:19:42.707Z,98539.19
2023-03-11T05:21:22.071Z,98542.69
2023-03-11T05:22:53.831Z,98555.06
2023-03-11T05:24:26.369Z,98554.16
2023-03-11T05:26:00.466Z,98556.88
2023-03-11T05:27:33.791Z,98567.38
2023-03-11T05:29:05.557Z,98564.75
2023-03-11T05:30:37.778Z,98571.72
2023-03-11T05:32:09.987Z,98580.31
2023-03-11T05:33:41.858Z,98580.44
2023-03-11T05:35:17.013Z,98577.78
2023-03-11T05:36:48.895Z,98583.94
2023-03-11T05:38:21.571Z,98589.31
2023-03-11T05:39:53.397Z,98595.44
2023-03-11T05:41:26.616Z,98604.34
2023-03-11T05:42:58.464Z,98600.03
2023-03-11T05:44:33.086Z,98614.09
2023-03-11T05:46:05.012Z,98621.94
2023-03-11T05:47:39.033Z,98613.25
2023-03-11T05:49:11.931Z,98624.50
2023-03-11T05:50:43.847Z,98623.66
2023-03-11T05:52:16.527Z,98628.00
2023-03-11T05:53:49.434Z,98622.69
2023-03-11T05:55:26.884Z,98632.34
2023-03-11T05:56:59.177Z,98630.44
2023-03-11T05:58:32.367Z,98635.94
2023-03-11T06:00:10.541Z,98631.59
2023-03-11T06:01:45.431Z,98635.09
2023-03-11T06:03:17.411Z,98642.94
2023-03-11T06:04:49.433Z,98644.66
2023-03-11T06:06:21.747Z,98649.31
2023-03-11T06:07:53.509Z,98661.59
2023-03-11T06:09:27.275Z,98663.28
2023-03-11T06:11:03.953Z,98664.22
2023-03-11T06:12:35.826Z,98656.28
2023-03-11T06:14:17.248Z,98672.06
2023-03-11T06:15:52.099Z,98685.31
2023-03-11T06:17:25.428Z,98679.09
2023-03-11T06:19:01.042Z,98681.81
2023-03-11T06:20:36.282Z,98677.28
2023-03-11T06:22:07.995Z,98685.22
2023-03-11T06:23:39.952Z,98700.16
2023-03-11T06:25:12.993Z,98692.34
2023-03-11T06:26:46.943Z,98701.97
2023-03-11T06:28:20.365Z,98700.16
2023-03-11T06:29:53.824Z,98717.75
2023-03-11T06:31:29.542Z,98712.25
2023-03-11T06:33:08.012Z,98719.47
2023-03-11T06:34:39.930Z,98733.44
2023-03-11T06:36:14.366Z,98724.56
2023-03-11T06:37:46.264Z,98742.16
2023-03-11T06:39:18.102Z,98745.00
2023-03-11T06:40:53.049Z,98757.28
2023-03-11T06:42:25.127Z,98774.06
2023-03-11T06:43:59.923Z,98754.66
2023-03-11T06:45:33.165Z,98761.66
2023-03-11T06:47:05.278Z,98765.25
2023-03-11T06:48:37.760Z,98778.41
2023-03-11T06:50:10.051Z,98769.41
2023-03-11T06:51:42.740Z,98791.47
2023-03-11T06:53:15.504Z,98779.91
2023-03-11T06:54:47.312Z,98790.50
2023-03-11T06:56:22.971Z,98798.44
2023-03-11T06:58:02.726Z,98788.81
2023-03-11T06:59:35.121Z,98808.09
2023-03-11T07:01:11.767Z,98792.31
2023-03-11T07:02:43.856Z,98806.22
2023-03-11T07:04:16.920Z,98810.84
2023-03-11T07:05:51.578Z,98817.84
2023-03-11T07:07:23.383Z,98827.41
2023-03-11T07:08:55.315Z,98821.34
2023-03-11T07:10:27.324Z,98824.88
2023-03-11T07:11:59.048Z,98822.22
2023-03-11T07:13:37.225Z,98841.63
2023-03-11T07:15:09.670Z,98846.06
2023-03-11T07:16:41.760Z,98845.19
2023-03-11T07:18:21.179Z,98844.34
2023-03-11T07:19:53.490Z,98854.19
2023-03-11T07:21:25.814Z,98863.84
2023-03-11T07:22:57.922Z,98860.25
2023-03-11T07:24:29.635Z,98862.81
2023-03-11T07:26:02.088Z,98863.66
2023-03-11T07:27:34.061Z,98865.66
2023-03-11T07:29:05.903Z,98882.38
2023-03-11T07:30:39.388Z,98887.59
2023-03-11T07:32:11.195Z,98883.16
2023-03-11T07:33:43.249Z,98887.69
2023-03-11T07:35:15.214Z,98882.28
2023-03-11T07:36:46.965Z,98883.16
2023-03-11T07:38:19.879Z,98893.75
2023-03-11T07:39:51.688Z,98891.97
2023-03-11T07:41:23.417Z,98899.06
2023-03-11T07:42:55.305Z,98903.28
2023-03-11T07:44:27.185Z,98903.22
2023-03-11T07:46:11.060Z,98911.16
2023-03-11T07:47:42.806Z,98918.94
2023-03-11T07:49:15.140Z,98916.28
2023-03-11T07:50:47.045Z,98918.94
2023-03-11T07:52:19.046Z,98925.06
2023-03-11T07:53:53.027Z,98922.50
2023-03-11T07:55:24.787Z,98931.22
2023-03-11T07:56:56.552Z,98930.25
2023-03-11T07:58:28.533Z,98931.16
2023-03-11T08:00:00.927Z,98939.16
2023-03-11T08:01:36.906Z,98938.03
2023-03-11T08:03:08.614Z,98949.59
2023-03-11T08:04:41.253Z,98944.28
2023-03-11T08:06:14.304Z,98953.84
2023-03-11T08:07:46.099Z,98955.56
2023-03-11T08:09:18.034Z,98957.16
2023-03-11T08:10:49.789Z,98960.66
2023-03-11T08:12:21.514Z,98966.81
2023-03-11T08:13:54.005Z,98971.09
2023-03-11T08:15:25.753Z,98965.69
2023-03-11T08:16:57.509Z,98966.44
2023-03-11T08:18:30.956Z,98981.22
2023-03-11T08:20:02.805Z,98979.34
2023-03-11T08:21:34.584Z,98978.38
2023-03-11T08:23:06.373Z,98988.78
2023-03-11T08:24:38.191Z,98994.03
2023-03-11T08:26:14.439Z,98994.69
2023-03-11T08:27:46.161Z,99001.59
2023-03-11T08:29:17.894Z,99000.53
2023-03-11T08:30:49.726Z,99010.22
2023-03-11T08:32:21.527Z,99005.84
2023-03-11T08:33:56.548Z,99017.16
2023-03-11T08:35:28.709Z,99003.59
2023-03-11T08:37:00.841Z,99020.34
2023-03-11T08:38:32.634Z,99012.31
2023-03-11T08:40:05.232Z,99029.91
2023-03-11T08:41:36.878Z,99028.88
2023-03-11T08:43:08.621Z,99026.25
2023-03-11T08:44:40.435Z,99030.41
2023-03-11T08:46:25.810Z,99037.59
2023-03-11T08:47:57.639Z,99040.81
2023-03-11T08:49:29.753Z,99047.75
2023-03-11T08:51:03.119Z,99054.75
2023-03-11T08:52:35.069Z,99049.53
2023-03-11T08:54:07.005Z,99055.59
2023-03-11T08:55:41.486Z,99057.41
2023-03-11T08:57:13.262Z,99060.13
2023-03-11T08:58:45.652Z,99067.06
2023-03-11T09:00:17.984Z,99071.63
2023-03-11T09:01:49.674Z,99071.50
2023-03-11T09:03:21.431Z,99071.63
2023-03-11T09:04:53.497Z,99074.34
2023-03-11T09:06:26.104Z,99083.25
2023-03-11T09:07:57.835Z,99082.41
2023-03-11T09:09:29.593Z,99075.38
2023-03-11T09:11:01.845Z,99082.59
2023-03-11T09:12:33.780Z,99087.25
2023-03-11T09:14:05.520Z,99086.56
2023-03-11T09:15:38.929Z,99089.47
2023-03-11T09:17:12.126Z,99093.16
2023-03-11T09:18:43.952Z,99101.28
2023-03-11T09:20:16.406Z,99096.19
2023-03-11T09:21:48.148Z,99105.09
2023-03-11T09:23:19.901Z,99104.25
2023-03-11T09:24:51.633Z,99108.69
2023-03-11T09:26:23.476Z,99113.22
2023-03-11T09:27:55.196Z,99114.19
2023-03-11T09:29:27.780Z,99111.59
2023-03-11T09:30:59.560Z,99131.97
2023-03-11T09:32:31.376Z,99119.66
2023-03-11T09:34:03.088Z,99126.59
2023-03-11T09:35:35.131Z,99124.97
2023-03-11T09:37:06.964Z,99129.41
2023-03-11T09:38:38.758Z,99129.22
2023-03-11T09:40:17.463Z,99132.72
2023-03-11T09:41:59.197Z,99132.63
2023-03-11T09:43:41.296Z,99149.22
2023-03-11T09:45:20.408Z,99145.63
2023-03-11T09:47:29.916Z,99141.19
2023-03-11T09:49:22.498Z,99144.50
2023-03-11T09:51:01.108Z,99152.00
2023-03-11T09:52:55.515Z,99155.41
2023-03-11T09:54:30.759Z,99154.09
2023-03-11T09:56:07.400Z,99157.53
2023-03-11T09:57:39.743Z,99165.38
2023-03-11T09:59:27.602Z,99160.84
2023-03-11T10:00:59.660Z,99164.16
2023-03-11T10:02:32.711Z,99180.00
2023-03-11T10:04:20.826Z,99171.19
2023-03-11T10:05:58.521Z,99180.75
2023-03-11T10:07:47.196Z,99175.44
2023-03-11T10:09:35.798Z,99180.56
2023-03-11T10:11:45.445Z,99191.81
2023-03-11T10:13:56.678Z,99186.22
2023-03-11T10:15:49.175Z,99187.66
2023-03-11T10:17:30.288Z,99188.16
2023-03-11T10:19:11.752Z,99194.19
2023-03-11T10:20:46.247Z,99192.31
2023-03-11T10:22:24.881Z,99199.81
2023-03-11T10:24:21.720Z,99194.22
2023-03-11T10:26:13.774Z,99189.41
2023-03-11T10:27:52.004Z,99199.53
2023-03-11T10:29:30.861Z,99197.53
2023-03-11T10:31:21.829Z,99199.63
2023-03-11T10:33:03.456Z,99203.53
2023-03-11T10:34:43.826Z,99200.56
2023-03-11T10:36:24.409Z,99211.66
2023-03-11T10:38:05.761Z,99208.94
2023-03-11T10:39:38.131Z,99208.34
2023-03-11T10:41:37.284Z,99208.16
2023-03-11T10:43:19.058Z,99210.31
2023-03-11T10:44:52.536Z,99213.25
2023-03-11T10:46:26.984Z,99216.38
2023-03-11T10:47:58.914Z,99214.16
2023-03-11T10:49:30.692Z,99214.75
2023-03-11T10:51:11.115Z,99219.94
2023-03-11T10:53:04.323Z,99221.56
2023-03-11T10:54:39.822Z,99232.06
2023-03-11T10:56:25.674Z,99229.63
2023-03-11T10:58:15.769Z,99231.53
2023-03-11T10:59:50.676Z,99240.44
2023-03-11T11:01:23.390Z,99238.09
2023-03-11T11:02:58.450Z,99248.91
2023-03-11T11:04:40.962Z,99250.16
2023-03-11T11:06:34.290Z,99249.63
2023-03-11T11:08:13.368Z,99240.13
2023-03-11T11:09:45.096Z,99262.44
2023-03-11T11:11:23.012Z,99247.72
2023-03-11T11:13:16.789Z,99263.09
2023-03-11T11:14:51.322Z,99253.53
2023-03-11T11:16:23.364Z,99261.59
2023-03-11T11:17:58.116Z,99270.59
2023-03-11T11:19:30.989Z,99260.06
2023-03-11T11:21:13.949Z,99263.75
2023-03-11T11:22:55.427Z,99266.44
2023-03-11T11:24:29.591Z,99268.88
2023-03-11T11:26:04.939Z,99268.88
2023-03-11T11:27:36.691Z,99265.28
2023-03-11T11:29:11.085Z,99267.09
2023-03-11T11:30:58.440Z,99268.34
2023-03-11T11:32:30.345Z,99255.72
2023-03-11T11:34:02.302Z,99274.19
2023-03-11T11:35:34.307Z,99262.44
2023-03-11T11:37:06.921Z,99267.38
2023-03-11T11:38:38.721Z,99263.56
2023-03-11T11:40:23.524Z,99258.81
2023-03-11T11:41:56.856Z,99266.69
2023-03-11T11:43:42.332Z,99263.34
2023-03-11T11:45:26.692Z,99262.34
2023-03-11T11:47:10.090Z,99258.50
2023-03-11T11:48:49.564Z,99265.19
2023-03-11T11:50:42.209Z,99261.28
2023-03-11T11:52:18.221Z,99254.16
2023-03-11T11:54:07.301Z,99256.13
2023-03-11T11:55:46.987Z,99257.94
2023-03-11T11:57:22.628Z,99262.97
2023-03-11T11:58:55.475Z,99262.44
2023-03-11T12:00:38.840Z,99257.88
2023-03-11T12:02:16.464Z,99266.41
2023-03-11T12:04:25.780Z,99259.56
2023-03-11T12:06:39.731Z,99261.50
2023-03-11T12:08:21.784Z,99265.09
2023-03-11T12:10:24.282Z,99267.47
2023-03-11T12:12:32.916Z,99263.56
2023-03-11T12:14:10.546Z,99283.81
2023-03-11T12:16:11.869Z,99278.03
2023-03-11T12:17:47.621Z,99278.66
2023-03-11T12:19:44.156Z,99277.13
2023-03-11T12:21:43.518Z,99285.81
2023-03-11T12:23:23.904Z,99286.22
2023-03-11T12:25:22.337Z,99282.00
2023-03-11T12:27:01.904Z,99299.00
2023-03-11T12:28:51.640Z,99285.25
2023-03-11T12:30:46.216Z,99290.31
2023-03-11T12:32:48.198Z,99289.00
2023-03-11T12:34:22.215Z,99293.53
2023-03-11T12:35:57.162Z,99290.97
2023-03-11T12:37:29.197Z,99291.38
2023-03-11T12:39:05.513Z,99292.63
2023-03-11T12:40:50.555Z,99296.50
2023-03-11T12:42:27.183Z,99295.00
2023-03-11T12:44:01.548Z,99303.22
2023-03-11T12:45:51.168Z,99300.97
2023-03-11T12:47:24.915Z,99309.81
2023-03-11T12:49:13.735Z,99301.44
2023-03-11T12:50:45.541Z,99305.06
2023-03-11T12:52:21.931Z,99315.94
2023-03-11T12:53:55.517Z,99309.22
2023-03-11T12:55:33.758Z,99310.56
2023-03-11T12:57:20.703Z,99307.38
2023-03-11T12:59:24.294Z,99299.03
2023-03-11T13:01:11.985Z,99307.97
2023-03-11T13:03:23.724Z,99300.94
2023-03-11T13:05:05.517Z,99298.09
2023-03-11T13:06:53.320Z,99312.13
2023-03-11T13:08:28.825Z,99308.44
2023-03-11T13:10:12.745Z,99305.50
2023-03-11T13:11:48.808Z,99314.81
2023-03-11T13:13:42.528Z,99323.63
2023-03-11T13:15:20.179Z,99323.25
2023-03-11T13:16:52.127Z,99326.38
2023-03-11T13:18:30.734Z,99327.06
2023-03-11T13:20:02.744Z,99335.53
2023-03-11T13:21:38.924Z,99335.31
2023-03-11T13:23:27.452Z,99333.16
2023-03-11T13:24:59.207Z,99331.63
2023-03-11T13:26:40.681Z,99338.16
2023-03-11T13:28:31.957Z,99349.94
2023-03-11T13:30:22.415Z,99349.34
2023-03-11T13:32:20.316Z,99349.81
2023-03-11T13:33:58.328Z,99347.34
2023-03-11T13:35:44.338Z,99351.50
2023-03-11T13:37:44.588Z,99348.84
2023-03-11T13:39:28.603Z,99355.59
2023-03-11T13:41:03.557Z,99351.00
2023-03-11T13:42:40.343Z,99355.41
2023-03-11T13:44:21.231Z,99351.97
2023-03-11T13:46:06.737Z,99347.69
2023-03-11T13:47:43.253Z,99352.75
2023-03-11T13:49:32.584Z,99352.81
2023-03-11T13:51:15.997Z,99367.75
2023-03-11T13:52:50.732Z,99372.09
2023-03-11T13:54:49.054Z,99375.28
2023-03-11T13:56:31.253Z,99370.81
2023-03-11T13:58:15.135Z,99381.75
2023-03-11T13:59:51.844Z,99381.63
2023-03-11T14:01:23.789Z,99383.44
2023-03-11T14:03:13.063Z,99390.00
2023-03-11T14:04:54.632Z,99382.13
2023-03-11T14:06:30.707Z,99394.19
2023-03-11T14:08:12.519Z,99393.44
2023-03-11T14:09:44.502Z,99386.09
2023-03-11T14:11:18.093Z,99388.56
2023-03-11T14:12:50.114Z,99383.13
2023-03-11T14:14:38.794Z,99386.56
2023-03-11T14:16:16.623Z,99395.00
2023-03-11T14:17:48.952Z,99390.06
2023-03-11T14:19:21.077Z,99384.56
2023-03-11T14:20:52.902Z,99393.94
2023-03-11T14:22:24.720Z,99397.03
2023-03-11T14:23:56.832Z,99392.19
2023-03-11T14:25:31.274Z,99397.88
2023-03-11T14:27:07.542Z,99386.81
2023-03-11T14:28:45.120Z,99390.91
2023-03-11T14:30:30.464Z,99398.69
2023-03-11T14:32:17.764Z,99405.59
2023-03-11T14:33:58.669Z,99404.47
2023-03-11T14:35:33.729Z,99413.00
2023-03-11T14:37:24.548Z,99404.28
2023-03-11T14:38:56.253Z,99419.31
2023-03-11T14:40:32.923Z,99422.81
2023-03-11T14:42:13.817Z,99418.34
2023-03-11T14:43:51.089Z,99429.16
2023-03-11T14:45:27.288Z,99431.09
2023-03-11T14:47:09.385Z,99429.56
2023-03-11T14:48:43.908Z,99427.09
2023-03-11T14:50:19.191Z,99428.06
2023-03-11T14:51:58.746Z,99428.38
2023-03-11T14:53:43.077Z,99430.28
2023-03-11T14:55:22.982Z,99438.59
2023-03-11T14:57:04.911Z,99439.72
2023-03-11T14:59:06.422Z,99433.94
2023-03-11T15:01:19.463Z,99451.19
2023-03-11T15:03:12.764Z,99437.09
2023-03-11T15:04:44.611Z,99445.16
2023-03-11T15:06:19.804Z,99453.25
2023-03-11T15:08:01.007Z,99453.44
2023-03-11T15:09:33.216Z,99451.75
2023-03-11T15:11:13.041Z,99455.34
2023-03-11T15:12:45.745Z,99452.88
2023-03-11T15:14:22.371Z,99460.00
2023-03-11T15:15:58.903Z,99455.75
2023-03-11T15:17:41.134Z,99463.75
2023-03-11T15:19:27.541Z,99463.16
2023-03-11T15:21:13.646Z,99471.16
2023-03-11T15:22:45.378Z,99472.13
2023-03-11T15:24:35.267Z,99470.75
2023-03-11T15:26:07.329Z,99468.78
2023-03-11T15:27:39.804Z,99468.09
2023-03-11T15:29:16.655Z,99473.63
2023-03-11T15:30:48.452Z,99473.72
2023-03-11T15:32:29.283Z,99482.94
2023-03-11T15:34:19.344Z,99477.72
2023-03-11T15:35:51.349Z,99482.94
2023-03-11T15:37:26.600Z,99484.75
2023-03-11T15:39:19.163Z,99493.09
2023-03-11T15:40:55.669Z,99495.00
2023-03-11T15:42:27.457Z,99496.06
2023-03-11T15:44:02.156Z,99499.75
2023-03-11T15:45:33.948Z,99508.75
2023-03-11T15:47:06.158Z,99504.47
2023-03-11T15:48:37.951Z,99505.53
2023-03-11T15:50:24.679Z,99507.53
2023-03-11T15:52:01.595Z,99507.53
2023-03-11T15:53:33.315Z,99506.75
2023-03-11T15:55:05.615Z,99508.75
2023-03-11T15:56:40.094Z,99517.75
2023-03-11T15:58:15.459Z,99515.28
2023-03-11T15:59:48.423Z,99513.41
2023-03-11T16:01:23.780Z,99517.09
2023-03-11T16:02:56.322Z,99516.31
2023-03-11T16:04:28.212Z,99515.47
2023-03-11T16:05:59.997Z,99526.22
2023-03-11T16:07:39.590Z,99522.69
2023-03-11T16:09:13.044Z,99523.63
2023-03-11T16:10:44.751Z,99528.09
2023-03-11T16:12:22.081Z,99528.19
2023-03-11T16:13:53.777Z,99532.63
2023-03-11T16:15:28.763Z,99537.09
2023-03-11T16:17:00.755Z,99539.00
2023-03-11T16:18:34.027Z,99539.88
2023-03-11T16:20:06.270Z,99537.22
2023-03-11T16:21:45.224Z,99543.47
2023-03-11T16:23:26.285Z,99542.78
2023-03-11T16:24:59.938Z,99544.50
2023-03-11T16:26:32.602Z,99543.66
2023-03-11T16:28:05.882Z,99552.56
2023-03-11T16:29:39.202Z,99552.56
2023-03-11T16:31:11.010Z,99545.53
2023-03-11T16:32:43.780Z,99551.81
2023-03-11T16:34:15.545Z,99551.03
2023-03-11T16:35:47.788Z,99552.91
2023-03-11T16:37:21.061Z,99556.53
2023-03-11T16:38:52.744Z,99553.09
2023-03-11T16:40:27.384Z,99560.31
2023-03-11T16:41:59.131Z,99567.50
2023-03-11T16:43:31.992Z,99571.19
2023-03-11T16:45:04.220Z,99566.94
2023-03-11T16:46:36.062Z,99564.44
2023-03-11T16:48:07.881Z,99573.28
2023-03-11T16:49:39.585Z,99576.19
2023-03-11T16:51:11.396Z,99576.34
2023-03-11T16:52:43.130Z,99579.22
2023-03-11T16:54:14.881Z,99580.41
2023-03-11T16:55:47.623Z,99585.78
2023-03-11T16:57:19.896Z,99590.53
2023-03-11T16:58:51.640Z,99582.03
2023-03-11T17:00:25.100Z,99592.84
2023-03-11T17:01:56.883Z,99595.72
2023-03-11T17:03:34.497Z,99593.41
2023-03-11T17:05:12.903Z,99597.28
2023-03-11T17:06:44.652Z,99603.88
2023-03-11T17:08:18.382Z,99614.03
2023-03-11T17:09:51.222Z,99610.88
2023-03-11T17:11:24.396Z,99611.19
2023-03-11T17:12:56.388Z,99617.78
2023-03-11T17:14:28.744Z,99615.53
2023-03-11T17:16:02.216Z,99616.69
2023-03-11T17:17:34.019Z,99620.59
2023-03-11T17:19:05.758Z,99628.06
2023-03-11T17:20:43.580Z,99624.97
2023-03-11T17:22:16.118Z,99630.59
2023-03-11T17:23:48.026Z,99631.81
2023-03-11T17:25:19.937Z,99633.06
2023-03-11T17:26:51.665Z,99632.53
2023-03-11T17:28:23.375Z,99639.88
2023-03-11T17:29:55.094Z,99642.81
2023-03-11T17:31:26.860Z,99648.44
2023-03-11T17:32:58.682Z,99656.59
2023-03-11T17:34:30.404Z,99656.91
2023-03-11T17:36:07.131Z,99660.78
2023-03-11T17:37:38.852Z,99656.66
2023-03-11T17:39:10.578Z,99665.66
2023-03-11T17:40:42.255Z,99672.13
2023-03-11T17:42:14.091Z,99665.22
2023-03-11T17:43:46.533Z,99668.97
2023-03-11T17:45:18.596Z,99667.47
2023-03-11T17:46:50.375Z,99664.09
2023-03-11T17:48:22.174Z,99658.94
2023-03-11T17:49:54.357Z,99667.13
2023-03-11T17:51:26.435Z,99674.41
2023-03-11T17:52:58.279Z,99675.44
2023-03-11T17:54:30.017Z,99672.13
2023-03-11T17:56:01.737Z,99675.75
2023-03-11T17:57:44.431Z,99678.50
2023-03-11T17:59:18.107Z,99678.63
2023-03-11T18:00:50.072Z,99683.13
2023-03-11T18:02:22.012Z,99681.47
2023-03-11T18:03:55.128Z,99683.41
2023-03-11T18:05:26.914Z,99686.19
2023-03-11T18:06:58.993Z,99688.06
2023-03-11T18:08:31.427Z,99685.56
2023-03-11T18:10:03.279Z,99697.13
2023-03-11T18:11:35.017Z,99692.81
2023-03-11T18:13:06.702Z,99697.41
2023-03-11T18:14:38.400Z,99697.53
2023-03-11T18:16:29.903Z,99703.09
2023-03-11T18:18:01.636Z,99703.09
2023-03-11T18:19:34.042Z,99702.38
2023-03-11T18:21:17.412Z,99704.25
2023-03-11T18:22:49.199Z,99700.06
2023-03-11T18:24:20.887Z,99699.34
2023-03-11T18:25:52.685Z,99708.25
2023-03-11T18:27:24.803Z,99711.03
2023-03-11T18:28:58.157Z,99708.59
2023-03-11T18:30:29.985Z,99707.00
2023-03-11T18:32:02.028Z,99708.91
2023-03-11T18:33:34.092Z,99710.81
2023-03-11T18:35:06.573Z,99711.03
2023-03-11T18:36:38.279Z,99712.06
2023-03-11T18:38:11.517Z,99709.59
2023-03-11T18:39:43.212Z,99709.72
2023-03-11T18:41:15.692Z,99709.03
2023-03-11T18:42:47.459Z,99713.59
2023-03-11T18:44:19.259Z,99712.91
2023-03-11T18:45:51.017Z,99714.81